Terminal Aerodrome Forecast
Issued by NWS

Home | Current Version | Previous Version | Text Only | Print | Product List | Glossary On
Versions: 1 2 3 4 5 6 7 8 9 10 11 12 13 14 15 16 17 18 19 20
000
FTUS46 KSEW 192330
TAFPAE
TAF
KPAE 192330Z 2000/2024 14014G21KT 2SM -RA BR SCT013 BKN022 OVC035
     FM200200 17017G23KT P6SM VCSH OVC025
     FM201800 14007KT P6SM OVC060=

USA.gov is the U.S. government's official web portal to all federal, state and local government web resources and services.